Time,TemperatureF,DewpointF,PressureIn,WindDirection,WindDirectionDegrees,WindSpeedMPH,WindSpeedGustMPH,Humidity,HourlyPrecipIn,Conditions,Clouds,dailyrainin,SoftwareType,DateUTC
2013-07-09 00:01:00,74.0,72.0,30.17,SE,144,0.0,0.0,95,0.00,,,0.01,,2013-07-09 04:01:00,
2013-07-09 00:11:00,73.0,71.0,30.17,SE,144,0.0,0.0,95,0.00,,,0.01,,2013-07-09 04:11:00,
2013-07-09 00:22:00,73.0,72.0,30.17,SE,144,0.0,0.0,96,0.00,,,0.01,,2013-07-09 04:22:00,
2013-07-09 00:34:00,73.0,72.0,30.17,SE,144,0.0,0.0,96,0.00,,,0.01,,2013-07-09 04:34:00,
2013-07-09 00:42:00,72.0,71.0,30.17,SE,144,0.0,0.0,96,0.00,,,0.01,,2013-07-09 04:42:00,
2013-07-09 00:53:00,72.0,71.0,30.17,SE,144,0.0,0.0,96,0.00,,,0.01,,2013-07-09 04:53:00,
2013-07-09 01:02:00,72.0,71.0,30.17,SE,144,0.0,0.0,97,0.00,,,0.01,,2013-07-09 05:02:00,
2013-07-09 01:11:00,72.0,71.0,30.17,SE,144,0.0,0.0,97,0.00,,,0.01,,2013-07-09 05:11:00,
2013-07-09 01:22:00,72.0,71.0,30.17,SE,144,0.0,0.0,97,0.00,,,0.01,,2013-07-09 05:22:00,
2013-07-09 01:33:00,72.0,71.0,30.16,SE,144,0.0,0.0,97,0.00,,,0.01,,2013-07-09 05:33:00,
2013-07-09 01:42:00,72.0,71.0,30.16,SE,144,0.0,0.0,98,0.00,,,0.01,,2013-07-09 05:42:00,
2013-07-09 01:52:00,72.0,71.0,30.16,SE,144,0.0,0.0,98,0.00,,,0.01,,2013-07-09 05:52:00,
2013-07-09 02:01:00,72.0,71.0,30.15,SE,144,0.0,0.0,98,0.00,,,0.01,,2013-07-09 06:01:00,
2013-07-09 02:11:00,72.0,71.0,30.15,SE,144,0.0,0.0,98,0.00,,,0.01,,2013-07-09 06:11:00,
2013-07-09 02:22:00,72.0,71.0,30.15,SE,144,0.0,0.0,98,0.00,,,0.01,,2013-07-09 06:22:00,
2013-07-09 02:34:00,72.0,71.0,30.15,SE,144,0.0,0.0,98,0.00,,,0.01,,2013-07-09 06:34:00,
2013-07-09 02:43:00,72.0,71.0,30.14,SE,144,0.0,0.0,98,0.00,,,0.01,,2013-07-09 06:43:00,
2013-07-09 02:53:00,72.0,71.0,30.14,SE,144,0.0,0.0,98,0.00,,,0.01,,2013-07-09 06:53:00,
2013-07-09 03:02:00,71.0,70.0,30.14,SE,144,0.0,0.0,98,0.00,,,0.01,,2013-07-09 07:02:00,
2013-07-09 03:12:00,71.0,70.0,30.13,SE,144,0.0,0.0,98,0.00,,,0.01,,2013-07-09 07:12:00,
2013-07-09 03:22:00,71.0,70.0,30.13,SE,144,0.0,0.0,98,0.00,,,0.01,,2013-07-09 07:22:00,
2013-07-09 03:34:00,71.0,70.0,30.13,SE,144,0.0,0.0,98,0.00,,,0.01,,2013-07-09 07:34:00,
2013-07-09 03:53:00,71.0,70.0,30.12,SE,144,0.0,0.0,98,0.00,,,0.01,,2013-07-09 07:53:00,
2013-07-09 04:01:00,71.0,70.0,30.12,SE,144,0.0,0.0,98,0.00,,,0.01,,2013-07-09 08:01:00,
2013-07-09 04:22:00,71.0,70.0,30.12,SE,144,0.0,0.0,98,0.00,,,0.01,,2013-07-09 08:22:00,
2013-07-09 04:33:00,71.0,70.0,30.12,SE,144,0.0,0.0,98,0.00,,,0.01,,2013-07-09 08:33:00,
2013-07-09 04:43:00,70.0,69.0,30.12,SE,144,0.0,0.0,98,0.00,,,0.01,,2013-07-09 08:43:00,
2013-07-09 04:52:00,70.0,69.0,30.12,SE,144,0.0,0.0,98,0.00,,,0.01,,2013-07-09 08:52:00,
2013-07-09 05:02:00,70.0,69.0,30.12,SE,144,0.0,0.0,98,0.00,,,0.01,,2013-07-09 09:02:00,
2013-07-09 05:12:00,70.0,70.0,30.11,SE,144,0.0,0.0,99,0.00,,,0.01,,2013-07-09 09:12:00,
2013-07-09 05:22:00,70.0,70.0,30.11,SE,144,0.0,0.0,99,0.00,,,0.01,,2013-07-09 09:22:00,
2013-07-09 05:34:00,71.0,71.0,30.12,SE,144,0.0,0.0,99,0.00,,,0.01,,2013-07-09 09:34:00,
2013-07-09 05:42:00,70.0,70.0,30.12,SE,144,0.0,0.0,99,0.00,,,0.01,,2013-07-09 09:42:00,
2013-07-09 05:53:00,70.0,70.0,30.12,SE,144,0.0,0.0,99,0.00,,,0.01,,2013-07-09 09:53:00,
2013-07-09 06:11:00,70.0,70.0,30.13,SE,144,0.0,0.0,99,0.00,,,0.01,,2013-07-09 10:11:00,
2013-07-09 06:22:00,69.0,69.0,30.13,SE,144,0.0,0.0,99,0.00,,,0.01,,2013-07-09 10:22:00,
2013-07-09 06:33:00,69.0,69.0,30.13,SE,144,0.0,0.0,99,0.00,,,0.01,,2013-07-09 10:33:00,
2013-07-09 06:42:00,69.0,69.0,30.14,SE,144,0.0,0.0,99,0.00,,,0.01,,2013-07-09 10:42:00,
2013-07-09 06:52:00,69.0,69.0,30.14,SE,144,0.0,0.0,99,0.00,,,0.01,,2013-07-09 10:52:00,
2013-07-09 07:22:00,70.0,70.0,30.14,SE,144,0.0,0.0,99,0.00,,,0.01,,2013-07-09 11:22:00,
2013-07-09 07:34:00,70.0,70.0,30.14,SE,144,0.0,0.0,99,0.00,,,0.01,,2013-07-09 11:34:00,
2013-07-09 07:53:00,72.0,72.0,30.15,SE,144,0.0,0.0,99,0.00,,,0.01,,2013-07-09 11:53:00,
2013-07-09 08:02:00,74.0,74.0,30.15,SE,144,0.0,0.0,99,0.00,,,0.01,,2013-07-09 12:02:00,
2013-07-09 08:22:00,75.0,75.0,30.15,SE,144,0.0,0.0,99,0.00,,,0.01,,2013-07-09 12:22:00,
2013-07-09 08:33:00,75.0,75.0,30.15,SE,144,0.0,0.0,99,0.00,,,0.01,,2013-07-09 12:33:00,
2013-07-09 08:52:00,76.0,76.0,30.16,SE,141,0.0,0.0,99,0.00,,,0.01,,2013-07-09 12:52:00,
2013-07-09 09:22:00,77.0,77.0,30.16,North,5,0.0,0.0,99,0.00,,,0.01,,2013-07-09 13:22:00,
2013-07-09 09:33:00,77.0,77.0,30.17,South,171,0.0,0.0,99,0.00,,,0.01,,2013-07-09 13:33:00,
2013-07-09 09:43:00,78.0,77.0,30.17,NNE,17,0.0,0.0,98,0.00,,,0.01,,2013-07-09 13:43:00,
2013-07-09 09:53:00,78.0,77.0,30.17,NNE,17,0.0,0.0,98,0.00,,,0.01,,2013-07-09 13:53:00,
2013-07-09 10:22:00,80.0,77.0,30.17,NNE,18,0.0,0.0,92,0.00,,,0.01,,2013-07-09 14:22:00,
2013-07-09 10:34:00,82.0,79.0,30.16,North,351,0.0,1.0,90,0.00,,,0.01,,2013-07-09 14:34:00,
2013-07-09 10:43:00,83.0,79.0,30.17,SSE,162,0.0,5.0,88,0.00,,,0.01,,2013-07-09 14:43:00,
2013-07-09 10:53:00,83.0,79.0,30.17,SSE,162,0.0,5.0,88,0.00,,,0.01,,2013-07-09 14:53:00,
2013-07-09 11:12:00,83.0,78.0,30.17,North,355,0.0,6.0,84,0.00,,,0.01,,2013-07-09 15:12:00,
2013-07-09 11:22:00,84.0,78.0,30.17,North,355,0.0,5.0,81,0.00,,,0.01,,2013-07-09 15:22:00,
2013-07-09 11:43:00,86.0,80.0,30.17,South,186,0.0,2.0,82,0.00,,,0.01,,2013-07-09 15:43:00,
2013-07-09 11:52:00,87.0,80.0,30.18,North,5,0.0,5.0,79,0.00,,,0.01,,2013-07-09 15:52:00,
2013-07-09 12:02:00,88.0,79.0,30.18,South,175,0.0,2.0,74,0.00,,,0.01,,2013-07-09 16:02:00,
2013-07-09 12:11:00,88.0,79.0,30.18,South,175,0.0,2.0,74,0.00,,,0.01,,2013-07-09 16:11:00,
2013-07-09 12:22:00,88.0,79.0,30.18,NNE,18,0.0,2.0,75,0.00,,,0.01,,2013-07-09 16:22:00,
2013-07-09 12:43:00,88.0,79.0,30.16,North,5,0.0,5.0,75,0.00,,,0.01,,2013-07-09 16:43:00,
2013-07-09 12:52:00,88.0,79.0,30.16,North,5,0.0,5.0,75,0.00,,,0.01,,2013-07-09 16:52:00,
2013-07-09 13:11:00,88.0,77.0,30.16,North,360,2.0,7.0,71,0.00,,,0.01,,2013-07-09 17:11:00,
2013-07-09 13:22:00,88.0,77.0,30.16,North,5,0.0,4.0,71,0.00,,,0.01,,2013-07-09 17:22:00,
2013-07-09 14:02:00,90.0,78.0,30.14,North,355,0.0,8.0,67,0.00,,,0.01,,2013-07-09 18:02:00,
2013-07-09 14:11:00,90.0,78.0,30.14,North,355,0.0,8.0,67,0.00,,,0.01,,2013-07-09 18:11:00,
2013-07-09 15:11:00,91.0,77.0,30.13,North,355,2.0,12.0,64,0.00,,,0.01,,2013-07-09 19:11:00,
2013-07-09 15:33:00,89.0,77.0,30.11,North,11,0.0,3.0,69,0.00,,,0.00,,2013-07-09 19:33:00,
2013-07-09 15:42:00,89.0,77.0,30.11,North,11,0.0,3.0,69,0.00,,,0.00,,2013-07-09 19:42:00,
2013-07-09 16:32:00,92.0,77.0,30.09,North,355,1.0,11.0,62,0.00,,,0.00,,2013-07-09 20:32:00,
2013-07-09 16:43:00,89.0,76.0,30.08,South,173,1.0,5.0,66,0.00,,,0.00,,2013-07-09 20:43:00,
2013-07-09 16:52:00,86.0,76.0,30.09,South,185,1.0,11.0,72,0.00,,,0.00,,2013-07-09 20:52:00,
2013-07-09 17:01:00,86.0,76.0,30.09,South,185,1.0,11.0,72,0.00,,,0.00,,2013-07-09 21:01:00,
2013-07-09 17:11:00,85.0,77.0,30.09,South,181,1.0,6.0,77,0.00,,,0.00,,2013-07-09 21:11:00,
2013-07-09 17:22:00,85.0,78.0,30.09,SSW,192,1.0,8.0,79,0.00,,,0.00,,2013-07-09 21:22:00,
2013-07-09 17:32:00,85.0,78.0,30.09,SSW,192,1.0,8.0,79,0.00,,,0.00,,2013-07-09 21:32:00,
2013-07-09 17:42:00,85.0,78.0,30.09,South,187,0.0,9.0,80,0.00,,,0.00,,2013-07-09 21:42:00,
2013-07-09 17:52:00,86.0,78.0,30.08,NNE,14,0.0,4.0,77,0.00,,,0.00,,2013-07-09 21:52:00,
2013-07-09 18:01:00,86.0,78.0,30.08,NNE,14,0.0,4.0,77,0.00,,,0.00,,2013-07-09 22:01:00,
2013-07-09 18:11:00,85.0,77.0,30.08,NNW,348,0.0,1.0,76,0.00,,,0.00,,2013-07-09 22:11:00,
2013-07-09 18:22:00,84.0,75.0,30.08,South,180,0.0,8.0,75,0.00,,,0.00,,2013-07-09 22:22:00,
2013-07-09 18:33:00,84.0,75.0,30.08,South,180,0.0,8.0,75,0.00,,,0.00,,2013-07-09 22:33:00,
2013-07-09 18:42:00,83.0,76.0,30.08,SSW,192,0.0,6.0,79,0.00,,,0.00,,2013-07-09 22:42:00,
2013-07-09 18:53:00,82.0,75.0,30.08,South,175,0.0,4.0,80,0.00,,,0.00,,2013-07-09 22:53:00,
2013-07-09 19:02:00,82.0,75.0,30.08,South,175,0.0,4.0,80,0.00,,,0.00,,2013-07-09 23:02:00,
2013-07-09 19:12:00,82.0,76.0,30.07,South,177,0.0,2.0,83,0.00,,,0.00,,2013-07-09 23:12:00,
2013-07-09 19:22:00,81.0,75.0,30.07,SSE,150,0.0,0.0,83,0.00,,,0.00,,2013-07-09 23:22:00,
2013-07-09 19:33:00,81.0,76.0,30.08,NNE,32,0.0,0.0,85,0.00,,,0.00,,2013-07-09 23:33:00,
2013-07-09 19:43:00,81.0,76.0,30.08,NNE,32,0.0,0.0,85,0.00,,,0.00,,2013-07-09 23:43:00,
2013-07-09 19:53:00,81.0,75.0,30.07,SSE,162,0.0,3.0,82,0.00,,,0.00,,2013-07-09 23:53:00,
2013-07-09 20:01:00,81.0,75.0,30.08,SSW,207,0.0,3.0,82,0.00,,,0.00,,2013-07-10 00:01:00,
2013-07-09 20:11:00,81.0,75.0,30.08,SSW,207,0.0,3.0,82,0.00,,,0.00,,2013-07-10 00:11:00,
2013-07-09 20:22:00,80.0,74.0,30.08,NNE,26,0.0,0.0,83,0.00,,,0.00,,2013-07-10 00:22:00,
2013-07-09 20:33:00,79.0,74.0,30.08,North,5,0.0,0.0,86,0.00,,,0.00,,2013-07-10 00:33:00,
2013-07-09 20:42:00,79.0,74.0,30.08,North,5,0.0,0.0,86,0.00,,,0.00,,2013-07-10 00:42:00,
2013-07-09 20:52:00,78.0,73.0,30.08,NW,310,0.0,0.0,86,0.00,,,0.00,,2013-07-10 00:52:00,
2013-07-09 21:01:00,77.0,73.0,30.08,NE,36,0.0,0.0,88,0.00,,,0.00,,2013-07-10 01:01:00,
2013-07-09 21:11:00,77.0,73.0,30.08,NE,36,0.0,0.0,88,0.00,,,0.00,,2013-07-10 01:11:00,
2013-07-09 21:22:00,76.0,72.0,30.08,NNE,30,0.0,0.0,88,0.00,,,0.00,,2013-07-10 01:22:00,
2013-07-09 21:33:00,76.0,72.0,30.08,NNE,30,0.0,0.0,88,0.00,,,0.00,,2013-07-10 01:33:00,
2013-07-09 21:43:00,76.0,72.0,30.09,NE,45,0.0,1.0,88,0.00,,,0.00,,2013-07-10 01:43:00,
2013-07-09 21:53:00,76.0,72.0,30.09,NNE,22,0.0,0.0,88,0.00,,,0.00,,2013-07-10 01:53:00,
2013-07-09 22:11:00,75.0,72.0,30.09,NNE,22,0.0,0.0,90,0.00,,,0.00,,2013-07-10 02:11:00,
2013-07-09 22:22:00,75.0,73.0,30.09,NE,37,0.0,0.0,93,0.00,,,0.00,,2013-07-10 02:22:00,
2013-07-09 22:43:00,74.0,72.0,30.09,NE,37,0.0,0.0,94,0.00,,,0.00,,2013-07-10 02:43:00,
2013-07-09 23:12:00,74.0,72.0,30.11,NE,37,0.0,0.0,95,0.00,,,0.00,,2013-07-10 03:12:00,
2013-07-09 23:22:00,74.0,72.0,30.11,NE,37,0.0,0.0,95,0.00,,,0.00,,2013-07-10 03:22:00,
2013-07-09 23:43:00,74.0,73.0,30.11,NE,37,0.0,0.0,96,0.00,,,0.00,,2013-07-10 03:43:00,
2013-07-09 23:52:00,73.0,72.0,30.11,NE,37,0.0,0.0,96,0.00,,,0.00,,2013-07-10 03:52:00,